Time;durP1;ratioP1;P1;durP2;ratioP2;P2;SDS_P1;SDS_P2;PMS_P1;PMS_P2;Temp;Humidity;BMP_temperature;BMP_pressure;BME280_temperature;BME280_humidity;BME280_pressure;Samples;Min_cycle;Max_cycle;Signal;HPM_P1;HPM_P2
2022/11/02 00:00:57;;;;;;;12.73;2.67;;;12.70;99.90;;;;;;5052644;28;20592;-81
2022/11/02 00:03:24;;;;;;;12.40;2.47;;;12.60;99.90;;;;;;5052685;28;20296;-83
2022/11/02 00:05:53;;;;;;;11.43;2.00;;;12.60;99.90;;;;;;5052843;28;20218;-81
2022/11/02 00:08:20;;;;;;;15.13;3.20;;;12.50;99.90;;;;;;5037152;28;20279;-81
2022/11/02 00:10:46;;;;;;;15.30;3.23;;;12.50;99.90;;;;;;5031772;28;20557;-83
2022/11/02 00:13:13;;;;;;;16.67;3.47;;;12.50;99.90;;;;;;5032649;28;20217;-82
2022/11/02 00:15:40;;;;;;;16.67;3.87;;;12.50;99.90;;;;;;5032613;28;20202;-83
2022/11/02 00:18:11;;;;;;;12.70;3.17;;;12.50;99.90;;;;;;5032471;28;20289;-83
2022/11/02 00:20:39;;;;;;;17.20;3.27;;;12.40;99.90;;;;;;5033397;28;20306;-83
2022/11/02 00:23:09;;;;;;;10.30;1.87;;;12.30;99.90;;;;;;5033732;28;20284;-83
2022/11/02 00:25:39;;;;;;;11.90;2.70;;;12.20;99.90;;;;;;5032817;28;20206;-82
2022/11/02 00:28:06;;;;;;;14.60;2.83;;;12.10;99.90;;;;;;5035604;28;20210;-81
2022/11/02 00:30:33;;;;;;;16.97;2.17;;;12.00;99.90;;;;;;5040573;28;20297;-83
2022/11/02 00:33:00;;;;;;;20.10;3.80;;;11.80;99.90;;;;;;5036770;28;20209;-83
2022/11/02 00:35:27;;;;;;;13.13;2.20;;;11.70;99.90;;;;;;5052606;28;20606;-82
2022/11/02 00:37:54;;;;;;;11.13;2.20;;;11.70;99.90;;;;;;5043645;28;20289;-81
2022/11/02 00:40:22;;;;;;;9.60;2.13;;;11.70;99.90;;;;;;5032423;28;20225;-82
2022/11/02 00:42:49;;;;;;;11.67;2.37;;;11.70;99.90;;;;;;5035455;28;20233;-83
2022/11/02 00:45:16;;;;;;;8.43;2.23;;;11.70;99.90;;;;;;5052254;28;20194;-84
2022/11/02 00:47:43;;;;;;;15.83;3.20;;;11.70;99.90;;;;;;5052370;28;20645;-84
2022/11/02 00:50:10;;;;;;;9.40;1.90;;;11.70;99.90;;;;;;5038295;28;20212;-83
2022/11/02 00:52:39;;;;;;;10.57;1.80;;;11.70;99.90;;;;;;5031892;28;20203;-82
2022/11/02 00:55:07;;;;;;;11.33;1.93;;;11.70;99.90;;;;;;5031754;28;20214;-82
2022/11/02 00:57:36;;;;;;;8.57;2.20;;;11.70;99.90;;;;;;5031972;28;20203;-83
2022/11/02 01:00:03;;;;;;;7.80;1.80;;;11.70;99.90;;;;;;5031342;28;20229;-82
2022/11/02 01:02:30;;;;;;;5.47;2.07;;;11.70;99.90;;;;;;5032626;28;20549;-82
2022/11/02 01:04:57;;;;;;;10.60;2.37;;;11.80;99.90;;;;;;5032644;28;20305;-81
2022/11/02 01:07:23;;;;;;;4.70;1.73;;;11.80;99.90;;;;;;5032076;28;20199;-83
2022/11/02 01:09:50;;;;;;;10.60;1.87;;;11.70;99.90;;;;;;5033132;28;20199;-83
2022/11/02 01:12:17;;;;;;;9.40;1.87;;;11.80;99.90;;;;;;5032640;28;20590;-82
2022/11/02 01:14:46;;;;;;;8.60;1.93;;;11.80;99.90;;;;;;5031559;28;20759;-82
2022/11/02 01:17:12;;;;;;;9.87;1.97;;;11.80;99.90;;;;;;5032315;28;20293;-81
2022/11/02 01:19:39;;;;;;;8.57;2.50;;;11.80;99.90;;;;;;5031814;28;20234;-82
2022/11/02 01:22:06;;;;;;;10.17;2.40;;;11.70;99.90;;;;;;5032357;28;20222;-82
2022/11/02 01:24:33;;;;;;;10.83;2.00;;;11.70;99.90;;;;;;5036336;28;20213;-79
2022/11/02 01:27:00;;;;;;;10.03;2.33;;;11.80;99.90;;;;;;5055247;28;20204;-81
2022/11/02 01:29:27;;;;;;;13.07;2.73;;;11.70;99.90;;;;;;5055198;28;20224;-81
2022/11/02 01:31:55;;;;;;;14.00;2.87;;;11.70;99.90;;;;;;5051329;28;20198;-82
2022/11/02 01:34:22;;;;;;;17.13;2.87;;;11.70;99.90;;;;;;5048419;28;20206;-81
2022/11/02 01:36:49;;;;;;;14.80;2.17;;;11.70;99.90;;;;;;5055673;28;20281;-82
2022/11/02 01:39:16;;;;;;;13.43;2.30;;;11.70;99.90;;;;;;5055264;28;20201;-83
2022/11/02 01:41:43;;;;;;;11.10;2.53;;;11.70;99.90;;;;;;5055577;28;20391;-82
2022/11/02 01:44:27;;;;;;;12.43;2.27;;;11.70;99.90;;;;;;5054826;28;20226;-83
2022/11/02 01:47:00;;;;;;;12.90;2.70;;;11.70;99.90;;;;;;5055086;28;20602;-82
2022/11/02 01:49:28;;;;;;;11.27;1.97;;;11.70;99.90;;;;;;5054554;28;20197;-82
2022/11/02 01:52:00;;;;;;;13.00;2.17;;;11.70;99.90;;;;;;5054848;28;20284;-83
2022/11/02 01:54:31;;;;;;;12.10;2.83;;;11.70;99.90;;;;;;5055606;28;20328;-82
2022/11/02 01:57:03;;;;;;;14.70;2.13;;;11.70;99.90;;;;;;5053988;28;20209;-81
2022/11/02 01:59:35;;;;;;;12.67;2.40;;;11.70;99.90;;;;;;5052403;28;20586;-83
2022/11/02 02:02:08;;;;;;;10.77;2.43;;;11.70;99.90;;;;;;5035244;28;20210;-82
2022/11/02 02:04:35;;;;;;;11.33;2.87;;;11.70;99.90;;;;;;5043062;28;20278;-82
2022/11/02 02:07:02;;;;;;;12.67;1.60;;;11.70;99.90;;;;;;5054505;28;20194;-82
2022/11/02 02:09:30;;;;;;;10.77;1.90;;;11.60;99.90;;;;;;5054311;28;20221;-82
2022/11/02 02:11:57;;;;;;;16.43;2.70;;;11.60;99.90;;;;;;5053967;28;20591;-82
2022/11/02 02:14:24;;;;;;;8.53;1.83;;;11.60;99.90;;;;;;5054994;28;20206;-81
2022/11/02 02:17:17;;;;;;;16.33;2.70;;;11.60;99.90;;;;;;5053894;28;20205;-82
2022/11/02 02:19:51;;;;;;;10.57;2.10;;;11.60;99.90;;;;;;5034515;28;20613;-82
2022/11/02 02:23:03;;;;;;;11.37;2.20;;;11.60;99.90;;;;;;5034670;28;20313;-82
2022/11/02 02:25:51;;;;;;;13.63;3.00;;;11.60;99.90;;;;;;5025229;28;20198;-82
2022/11/02 02:28:24;;;;;;;14.23;2.90;;;11.50;99.90;;;;;;5034852;28;20199;-81
2022/11/02 02:30:57;;;;;;;15.50;2.60;;;11.50;99.90;;;;;;5034105;28;20199;-83
2022/11/02 02:33:30;;;;;;;11.83;2.13;;;11.50;99.90;;;;;;5049507;28;20205;-82
2022/11/02 02:36:00;;;;;;;12.37;2.80;;;11.50;99.90;;;;;;5053535;28;20647;-83
2022/11/02 02:38:32;;;;;;;17.30;3.37;;;11.50;99.90;;;;;;5053526;28;20599;-82
2022/11/02 02:41:09;;;;;;;10.93;2.67;;;11.50;99.90;;;;;;5045969;28;20630;-82
2022/11/02 02:43:42;;;;;;;13.30;2.63;;;11.50;99.90;;;;;;5033719;28;20230;-82
2022/11/02 02:46:15;;;;;;;13.30;2.67;;;11.50;99.90;;;;;;5033589;28;20213;-82
2022/11/02 02:48:45;;;;;;;15.20;2.80;;;11.50;99.90;;;;;;5044856;28;20208;-82
2022/11/02 02:51:18;;;;;;;13.27;2.50;;;11.50;99.90;;;;;;5036179;28;20206;-83
2022/11/02 02:53:49;;;;;;;11.13;2.47;;;11.60;99.90;;;;;;5039041;28;20637;-82
2022/11/02 02:56:19;;;;;;;13.50;3.20;;;11.60;99.90;;;;;;5051741;28;20845;-81
2022/11/02 02:58:51;;;;;;;18.57;3.30;;;11.60;99.90;;;;;;5052250;28;20590;-82
2022/11/02 03:01:19;;;;;;;10.97;2.43;;;11.70;99.90;;;;;;5054174;28;20571;-83
2022/11/02 03:03:47;;;;;;;14.23;3.17;;;11.70;99.90;;;;;;5034373;28;20210;-84
2022/11/02 03:06:20;;;;;;;19.13;3.53;;;11.70;99.90;;;;;;5033886;28;20766;-85
2022/11/02 03:08:57;;;;;;;20.40;3.63;;;11.70;99.90;;;;;;5034440;28;20202;-86
2022/11/02 03:11:24;;;;;;;18.33;3.87;;;11.70;99.90;;;;;;5049563;28;20201;-83
2022/11/02 03:14:06;;;;;;;21.23;4.90;;;11.80;99.90;;;;;;5053425;28;20201;-82
2022/11/02 03:16:51;;;;;;;23.30;5.90;;;11.80;99.90;;;;;;5053476;28;20186;-82
2022/11/02 03:19:24;;;;;;;25.53;6.37;;;11.90;99.90;;;;;;5033330;28;20195;-83
2022/11/02 03:21:59;;;;;;;20.73;4.17;;;11.90;99.90;;;;;;5033231;28;20249;-83
2022/11/02 03:24:30;;;;;;;16.63;3.70;;;12.00;99.90;;;;;;5034175;28;20201;-83
2022/11/02 03:27:14;;;;;;;17.40;4.37;;;12.00;99.90;;;;;;5033406;28;20206;-83
2022/11/02 03:29:51;;;;;;;17.60;4.43;;;12.00;99.90;;;;;;5040275;28;20280;-83
2022/11/02 03:32:24;;;;;;;14.17;3.93;;;12.10;99.90;;;;;;5037096;28;20523;-83
2022/11/02 03:34:55;;;;;;;18.40;4.63;;;12.10;99.90;;;;;;5034107;28;20276;-84
2022/11/02 03:37:28;;;;;;;19.60;4.60;;;12.10;99.90;;;;;;5034414;28;20202;-86
2022/11/02 03:40:03;;;;;;;25.97;5.83;;;12.10;99.90;;;;;;5034062;28;20198;-84
2022/11/02 03:42:33;;;;;;;17.93;3.63;;;12.10;99.90;;;;;;5033145;28;20246;-88
2022/11/02 03:45:06;;;;;;;12.77;2.80;;;12.10;99.90;;;;;;5033352;28;20210;-84
2022/11/02 03:47:36;;;;;;;14.50;3.20;;;12.10;99.90;;;;;;5033376;28;20432;-83
2022/11/02 03:50:07;;;;;;;16.50;2.80;;;12.10;99.90;;;;;;5048253;28;20206;-85
2022/11/02 03:52:38;;;;;;;11.00;2.83;;;12.10;99.90;;;;;;5047398;28;20198;-87
2022/11/02 03:55:08;;;;;;;21.10;3.27;;;12.10;99.90;;;;;;5032281;28;20206;-84
2022/11/02 03:57:40;;;;;;;14.90;3.60;;;12.20;99.90;;;;;;5033471;28;20228;-87
2022/11/02 04:00:12;;;;;;;14.40;3.07;;;12.20;99.90;;;;;;5033194;28;20213;-85
2022/11/02 04:02:41;;;;;;;6.97;2.23;;;12.20;99.90;;;;;;5046062;28;20233;-87
2022/11/02 04:05:09;;;;;;;11.90;3.40;;;12.10;99.90;;;;;;5053359;28;20198;-85
2022/11/02 04:10:19;;;;;;;18.80;3.80;;;12.00;99.90;;;;;;5031964;28;20252;-85
2022/11/02 04:15:32;;;;;;;19.40;3.90;;;12.10;99.90;;;;;;5037617;28;20204;-83
2022/11/02 04:20:43;;;;;;;16.23;3.43;;;12.20;99.90;;;;;;5053341;28;20502;-85
2022/11/02 04:25:54;;;;;;;20.73;3.67;;;12.30;99.90;;;;;;5052869;28;20478;-84
2022/11/02 04:28:21;;;;;;;15.27;3.17;;;12.30;99.90;;;;;;5052153;28;20216;-82
2022/11/02 04:30:49;;;;;;;18.70;4.03;;;12.40;99.90;;;;;;5051283;28;20222;-83
2022/11/02 04:33:34;;;;;;;11.87;3.00;;;12.40;99.90;;;;;;5051682;28;20669;-81
2022/11/02 04:36:02;;;;;;;20.27;3.53;;;12.30;99.90;;;;;;5052636;28;20220;-82
2022/11/02 04:38:40;;;;;;;10.87;3.20;;;12.30;99.90;;;;;;5051078;28;20267;-82
2022/11/02 04:43:52;;;;;;;16.20;3.47;;;12.30;99.90;;;;;;5051551;28;20537;-80
2022/11/02 04:46:22;;;;;;;17.10;3.33;;;12.30;99.90;;;;;;5051724;28;20198;-80
2022/11/02 04:48:49;;;;;;;12.10;2.93;;;12.40;99.90;;;;;;5051900;28;20212;-82
2022/11/02 04:51:16;;;;;;;9.67;3.47;;;12.40;99.90;;;;;;5051107;28;20198;-80
2022/11/02 04:53:43;;;;;;;14.20;3.10;;;12.40;99.90;;;;;;5052267;28;20214;-81
2022/11/02 04:56:10;;;;;;;11.53;2.80;;;12.50;99.90;;;;;;5051784;28;20255;-81
2022/11/02 04:58:37;;;;;;;14.80;3.57;;;12.50;99.90;;;;;;5054651;28;20281;-83
2022/11/02 05:01:08;;;;;;;14.30;3.27;;;12.40;99.90;;;;;;5055428;28;20300;-82
2022/11/02 05:03:36;;;;;;;12.30;2.90;;;12.50;99.90;;;;;;5056463;28;20248;-82
2022/11/02 05:06:03;;;;;;;13.57;2.83;;;12.40;99.90;;;;;;5055906;28;20289;-84
2022/11/02 05:08:30;;;;;;;12.47;2.73;;;12.40;99.90;;;;;;5055781;28;20209;-82
2022/11/02 05:10:57;;;;;;;9.37;3.20;;;12.50;99.90;;;;;;5040843;28;20494;-82
2022/11/02 05:13:26;;;;;;;11.10;2.77;;;12.50;99.90;;;;;;5035345;28;20206;-83
2022/11/02 05:15:56;;;;;;;15.00;3.97;;;12.50;99.90;;;;;;5050582;28;20202;-80
2022/11/02 05:18:23;;;;;;;16.07;5.10;;;12.60;99.90;;;;;;5055438;28;20197;-81
2022/11/02 05:20:52;;;;;;;9.43;2.77;;;12.60;99.90;;;;;;5055688;28;20205;-84
2022/11/02 05:23:19;;;;;;;11.27;3.10;;;12.60;99.90;;;;;;5056064;28;20618;-81
2022/11/02 05:25:52;;;;;;;10.20;2.57;;;12.60;99.90;;;;;;5056494;28;20202;-84
2022/11/02 05:28:19;;;;;;;13.63;2.27;;;12.60;99.90;;;;;;5055928;28;20200;-84
2022/11/02 05:30:46;;;;;;;11.53;3.00;;;12.60;99.90;;;;;;5056363;28;20194;-85
2022/11/02 05:33:13;;;;;;;11.63;2.53;;;12.60;99.90;;;;;;5056855;28;20545;-87
2022/11/02 05:35:40;;;;;;;7.03;2.50;;;12.60;99.90;;;;;;5056324;28;20205;-84
2022/11/02 05:38:08;;;;;;;20.63;4.10;;;12.60;99.90;;;;;;5056443;28;20509;-84
2022/11/02 05:40:38;;;;;;;10.37;3.30;;;12.60;99.90;;;;;;5055810;28;20205;-81
2022/11/02 05:43:05;;;;;;;15.47;3.40;;;12.60;99.90;;;;;;5055638;28;20245;-82
2022/11/02 05:45:31;;;;;;;10.80;2.60;;;12.60;99.90;;;;;;5055607;28;20228;-81
2022/11/02 05:48:01;;;;;;;10.93;2.33;;;12.60;99.90;;;;;;5055782;28;20198;-89
2022/11/02 05:50:28;;;;;;;7.53;1.93;;;12.60;99.90;;;;;;5055624;28;20208;-82
2022/11/02 05:52:55;;;;;;;10.33;2.10;;;12.60;99.90;;;;;;5055202;28;20218;-81
2022/11/02 05:55:24;;;;;;;10.87;2.97;;;12.70;99.90;;;;;;5054178;28;20210;-81
2022/11/02 05:57:52;;;;;;;9.33;3.33;;;12.60;99.90;;;;;;5055560;28;20194;-83
2022/11/02 06:00:20;;;;;;;9.87;2.27;;;12.60;99.90;;;;;;5054845;28;20210;-83
2022/11/02 06:02:47;;;;;;;11.47;2.73;;;12.60;99.90;;;;;;5054920;28;20516;-81
2022/11/02 06:05:14;;;;;;;10.77;2.53;;;12.60;99.90;;;;;;5055572;28;20200;-83
2022/11/02 06:07:41;;;;;;;8.73;2.10;;;12.60;99.90;;;;;;5055672;28;20367;-83
2022/11/02 06:10:08;;;;;;;10.43;3.23;;;12.60;99.90;;;;;;5054435;28;20297;-83
2022/11/02 06:12:37;;;;;;;8.83;2.03;;;12.60;99.90;;;;;;5056294;28;20198;-84
2022/11/02 06:15:06;;;;;;;14.30;2.17;;;12.60;99.90;;;;;;5056546;28;20622;-86
2022/11/02 06:17:37;;;;;;;7.70;2.07;;;12.70;99.90;;;;;;5057090;28;20204;-85
2022/11/02 06:20:05;;;;;;;9.90;2.00;;;12.70;99.90;;;;;;5056158;28;20216;-82
2022/11/02 06:22:38;;;;;;;11.53;2.87;;;12.70;99.90;;;;;;5055356;28;20225;-84
2022/11/02 06:25:05;;;;;;;12.87;2.70;;;12.70;99.90;;;;;;5055902;28;20190;-82
2022/11/02 06:27:32;;;;;;;12.40;2.73;;;12.70;99.90;;;;;;5055168;28;20206;-80
2022/11/02 06:30:00;;;;;;;8.00;2.10;;;12.70;99.90;;;;;;5054759;28;20202;-81
2022/11/02 06:32:27;;;;;;;12.70;3.23;;;12.70;99.90;;;;;;5054216;28;20206;-83
2022/11/02 06:34:54;;;;;;;11.57;2.63;;;12.70;99.90;;;;;;5055402;28;20208;-83
2022/11/02 06:37:21;;;;;;;12.63;2.90;;;12.70;99.90;;;;;;5055343;28;20198;-82
2022/11/02 06:39:48;;;;;;;10.27;2.70;;;12.70;99.90;;;;;;5047736;28;20229;-89
2022/11/02 06:42:15;;;;;;;10.03;2.30;;;12.70;99.90;;;;;;5033883;28;20226;-83
2022/11/02 06:44:42;;;;;;;9.03;2.30;;;12.70;99.90;;;;;;5033354;28;20197;-82
2022/11/02 06:47:10;;;;;;;11.10;1.87;;;12.70;99.90;;;;;;5052210;28;20209;-82
2022/11/02 06:49:37;;;;;;;11.03;1.87;;;12.70;99.90;;;;;;5054482;28;20599;-84
2022/11/02 06:52:04;;;;;;;8.83;2.27;;;12.70;99.90;;;;;;5054336;28;20290;-79
2022/11/02 06:54:31;;;;;;;12.93;3.00;;;12.80;99.90;;;;;;5054567;28;20517;-84
2022/11/02 06:56:58;;;;;;;9.33;2.13;;;12.80;99.90;;;;;;5054330;28;20212;-86
2022/11/02 06:59:25;;;;;;;12.67;2.30;;;12.70;99.90;;;;;;5054779;28;20202;-82
2022/11/02 07:01:52;;;;;;;9.57;1.87;;;12.60;99.90;;;;;;5054226;28;20256;-81
2022/11/02 07:04:21;;;;;;;14.17;2.90;;;12.60;99.90;;;;;;5054455;28;20226;-79
2022/11/02 07:06:48;;;;;;;13.93;2.07;;;12.50;99.90;;;;;;5054599;28;20201;-82
2022/11/02 07:09:15;;;;;;;8.23;2.03;;;12.50;99.90;;;;;;5053892;28;20224;-84
2022/11/02 07:11:42;;;;;;;11.57;2.43;;;12.50;99.90;;;;;;5054627;28;20205;-84
2022/11/02 07:14:08;;;;;;;5.13;1.73;;;12.50;99.90;;;;;;5038779;28;20289;-84
2022/11/02 07:16:35;;;;;;;11.63;3.17;;;12.50;99.90;;;;;;5034854;28;20207;-85
2022/11/02 07:19:03;;;;;;;8.90;2.13;;;12.50;99.90;;;;;;5050513;28;20212;-85
2022/11/02 07:21:31;;;;;;;12.33;2.93;;;12.50;99.90;;;;;;5052902;28;20198;-83
2022/11/02 07:23:58;;;;;;;9.77;2.23;;;12.50;99.90;;;;;;5053492;28;20655;-81
2022/11/02 07:26:26;;;;;;;9.33;2.60;;;12.50;99.90;;;;;;5053487;28;20301;-85
2022/11/02 07:28:52;;;;;;;9.93;2.77;;;12.50;99.90;;;;;;5053816;28;20202;-80
2022/11/02 07:31:19;;;;;;;15.17;3.30;;;12.60;99.90;;;;;;5053520;28;20209;-84
2022/11/02 07:33:46;;;;;;;15.67;3.10;;;12.60;99.90;;;;;;5046810;28;20205;-83
2022/11/02 07:36:13;;;;;;;13.53;3.00;;;12.60;99.90;;;;;;5041025;28;20214;-82
2022/11/02 07:38:42;;;;;;;11.80;2.63;;;12.70;99.90;;;;;;5053797;28;20201;-82
2022/11/02 07:41:09;;;;;;;7.57;1.80;;;12.60;99.90;;;;;;5051745;28;20213;-83
2022/11/02 07:43:36;;;;;;;9.40;2.30;;;12.60;99.90;;;;;;5050212;28;20264;-82
2022/11/02 07:46:03;;;;;;;11.87;2.47;;;12.60;99.90;;;;;;5045334;28;20607;-83
2022/11/02 07:48:30;;;;;;;13.20;2.67;;;12.60;99.90;;;;;;5052549;28;20212;-83
2022/11/02 07:50:58;;;;;;;15.67;2.73;;;12.70;99.90;;;;;;5050418;28;20206;-82
2022/11/02 07:53:25;;;;;;;9.37;2.00;;;12.70;99.90;;;;;;5046036;28;20222;-86
2022/11/02 07:55:54;;;;;;;7.67;2.07;;;12.70;99.90;;;;;;5047725;28;20225;-83
2022/11/02 07:58:20;;;;;;;10.67;2.30;;;12.70;99.90;;;;;;5052915;28;20202;-85
2022/11/02 08:00:47;;;;;;;17.83;4.03;;;12.70;99.90;;;;;;5055727;28;20269;-85
2022/11/02 08:03:14;;;;;;;13.07;2.50;;;12.80;99.90;;;;;;5051021;28;20304;-79
2022/11/02 08:05:42;;;;;;;9.57;2.37;;;12.80;99.90;;;;;;5052578;28;20300;-83
2022/11/02 08:08:13;;;;;;;8.10;2.57;;;12.80;99.90;;;;;;5051511;28;20681;-82
2022/11/02 08:10:40;;;;;;;9.47;2.30;;;12.90;99.90;;;;;;5047302;28;20202;-81
2022/11/02 08:13:10;;;;;;;14.63;3.03;;;12.90;99.90;;;;;;5052356;28;20226;-84
2022/11/02 08:15:37;;;;;;;14.60;3.00;;;12.90;99.90;;;;;;5048769;28;20198;-83
2022/11/02 08:18:06;;;;;;;11.33;2.60;;;12.90;99.90;;;;;;5051011;28;20814;-80
2022/11/02 08:20:34;;;;;;;10.10;2.50;;;12.90;99.90;;;;;;5050277;28;20206;-80
2022/11/02 08:23:01;;;;;;;7.00;2.50;;;12.90;99.90;;;;;;5046148;28;20217;-79
2022/11/02 08:25:28;;;;;;;9.60;2.20;;;13.00;99.90;;;;;;5050501;28;20206;-80
2022/11/02 08:27:57;;;;;;;9.63;2.57;;;13.00;99.90;;;;;;5045508;28;20202;-79
2022/11/02 08:30:26;;;;;;;11.03;2.70;;;13.00;99.90;;;;;;5050936;28;20287;-78
2022/11/02 08:32:52;;;;;;;9.80;3.27;;;12.90;99.90;;;;;;5048907;28;20505;-80
2022/11/02 08:35:19;;;;;;;10.17;2.73;;;13.00;99.90;;;;;;5054317;28;20574;-78
2022/11/02 08:37:53;;;;;;;9.43;2.30;;;13.00;99.90;;;;;;5053422;28;20209;-78
2022/11/02 08:40:20;;;;;;;8.30;2.50;;;13.00;99.90;;;;;;5057208;28;20299;-79
2022/11/02 08:42:47;;;;;;;17.73;3.43;;;13.00;99.90;;;;;;5057441;28;20241;-79
2022/11/02 08:45:14;;;;;;;12.57;3.17;;;13.00;99.90;;;;;;5055610;28;20201;-81
2022/11/02 08:47:43;;;;;;;10.47;2.73;;;13.00;99.90;;;;;;5055785;28;20526;-82
2022/11/02 08:50:10;;;;;;;13.50;2.13;;;13.10;99.90;;;;;;5049362;28;20296;-80
2022/11/02 08:52:37;;;;;;;14.23;2.43;;;13.10;99.90;;;;;;5053385;28;20653;-78
2022/11/02 08:55:07;;;;;;;16.20;2.73;;;13.00;99.90;;;;;;5054056;28;20237;-78
2022/11/02 08:57:44;;;;;;;9.50;2.47;;;13.00;99.90;;;;;;5056900;28;20206;-82
2022/11/02 09:00:12;;;;;;;9.67;2.17;;;13.10;99.90;;;;;;5056812;28;20190;-83
2022/11/02 09:02:39;;;;;;;7.03;1.73;;;13.10;99.90;;;;;;5037439;28;20226;-84
2022/11/02 09:05:09;;;;;;;8.47;2.00;;;13.10;99.90;;;;;;5050857;28;20202;-81
2022/11/02 09:07:36;;;;;;;6.57;2.33;;;13.10;99.90;;;;;;5055573;28;20210;-82
2022/11/02 09:10:03;;;;;;;9.33;2.30;;;13.10;99.90;;;;;;5057846;28;20230;-80
2022/11/02 09:12:31;;;;;;;10.43;2.83;;;13.10;99.90;;;;;;5054300;28;20217;-81
2022/11/02 09:14:58;;;;;;;11.63;2.60;;;13.20;99.90;;;;;;5055431;28;20201;-81
2022/11/02 09:17:24;;;;;;;9.37;2.50;;;13.20;99.90;;;;;;5051081;28;20607;-81
2022/11/02 09:19:51;;;;;;;8.97;2.27;;;13.20;99.90;;;;;;5048720;28;20208;-80
2022/11/02 09:22:19;;;;;;;7.57;2.00;;;13.20;99.90;;;;;;5047030;28;20595;-80
2022/11/02 09:24:46;;;;;;;9.57;2.80;;;13.30;99.90;;;;;;5047878;28;20230;-80
2022/11/02 09:27:13;;;;;;;7.90;2.40;;;13.40;99.90;;;;;;5049718;28;20224;-81
2022/11/02 09:29:40;;;;;;;10.03;2.90;;;13.50;99.90;;;;;;5046916;28;20210;-82
2022/11/02 09:32:07;;;;;;;6.27;2.07;;;13.60;99.90;;;;;;5045109;28;20607;-81
2022/11/02 09:34:34;;;;;;;10.50;2.33;;;13.60;99.90;;;;;;5047945;28;20225;-82
2022/11/02 09:37:01;;;;;;;7.43;2.30;;;13.70;99.90;;;;;;5050186;28;20197;-81
2022/11/02 09:39:29;;;;;;;7.80;2.80;;;13.70;99.90;;;;;;5054282;28;20206;-81
2022/11/02 09:42:05;;;;;;;9.23;2.43;;;13.70;99.90;;;;;;5056629;28;20357;-83
2022/11/02 09:44:45;;;;;;;10.10;2.50;;;13.70;99.90;;;;;;5056590;28;20229;-81
2022/11/02 09:47:13;;;;;;;8.67;2.67;;;13.70;99.90;;;;;;5055291;28;20198;-80
2022/11/02 09:49:42;;;;;;;13.90;3.60;;;13.70;99.90;;;;;;5049567;28;20215;-80
2022/11/02 09:52:13;;;;;;;15.83;3.27;;;13.70;99.90;;;;;;5054318;28;20209;-81
2022/11/02 09:54:47;;;;;;;15.60;3.47;;;13.80;99.90;;;;;;5045863;28;20222;-80
2022/11/02 09:57:19;;;;;;;11.80;2.53;;;13.90;99.90;;;;;;5046647;28;20351;-80
2022/11/02 09:59:46;;;;;;;11.97;2.57;;;13.90;99.90;;;;;;5037088;28;20394;-81
2022/11/02 10:02:25;;;;;;;10.87;2.27;;;14.00;99.90;;;;;;5051483;28;20198;-81
2022/11/02 10:05:11;;;;;;;7.97;2.33;;;14.10;99.90;;;;;;5036172;28;20201;-81
2022/11/02 10:08:07;;;;;;;11.10;2.73;;;14.20;99.90;;;;;;5036509;28;20222;-79
2022/11/02 10:10:39;;;;;;;15.00;3.30;;;14.20;99.90;;;;;;5036463;28;20201;-81
2022/11/02 10:13:18;;;;;;;12.27;3.10;;;14.30;99.90;;;;;;5036990;28;20212;-80
2022/11/02 10:15:51;;;;;;;10.17;2.73;;;14.40;99.90;;;;;;5053393;28;20202;-82
2022/11/02 10:18:21;;;;;;;11.47;3.43;;;14.40;99.90;;;;;;5050256;28;20207;-80
2022/11/02 10:20:51;;;;;;;12.97;3.33;;;14.40;99.90;;;;;;5034277;28;20601;-81
2022/11/02 10:23:24;;;;;;;10.83;3.10;;;14.50;99.90;;;;;;5033693;28;20638;-82
2022/11/02 10:25:53;;;;;;;9.13;3.23;;;14.50;99.90;;;;;;5033875;28;20191;-80
2022/11/02 10:28:25;;;;;;;7.67;2.13;;;14.60;99.90;;;;;;5035438;28;20206;-81
2022/11/02 10:30:53;;;;;;;11.10;2.70;;;14.60;99.90;;;;;;5035588;28;20248;-80
2022/11/02 10:33:25;;;;;;;13.70;3.33;;;14.70;99.90;;;;;;5034970;28;20210;-79
2022/11/02 10:36:04;;;;;;;9.60;3.23;;;14.80;99.90;;;;;;5033313;28;20233;-79
2022/11/02 10:38:42;;;;;;;12.93;2.80;;;14.80;99.90;;;;;;5034828;28;20197;-79
2022/11/02 10:41:24;;;;;;;11.13;2.90;;;14.80;99.90;;;;;;5035506;28;20563;-78
2022/11/02 10:44:05;;;;;;;8.40;2.47;;;14.90;99.90;;;;;;5032931;28;21032;-78
2022/11/02 10:46:43;;;;;;;10.00;2.43;;;15.00;99.90;;;;;;5034517;28;20651;-80
2022/11/02 10:49:18;;;;;;;11.53;2.63;;;15.10;99.90;;;;;;5033410;28;20217;-79
2022/11/02 10:51:45;;;;;;;11.57;3.37;;;15.10;99.90;;;;;;5051210;28;20598;-79
2022/11/02 10:54:14;;;;;;;7.15;1.80;;;15.20;99.90;;;;;;5051404;28;20213;-79
2022/11/02 10:56:45;;;;;;;9.00;2.10;;;15.30;99.90;;;;;;5048333;28;20206;-79
2022/11/02 10:59:16;;;;;;;9.23;3.07;;;15.30;99.90;;;;;;5053600;28;20244;-79
2022/11/02 11:01:47;;;;;;;12.00;3.37;;;15.40;99.90;;;;;;5051444;28;20204;-78
2022/11/02 11:04:22;;;;;;;14.03;2.90;;;15.50;99.90;;;;;;5052581;28;20222;-80
2022/11/02 11:06:49;;;;;;;8.70;2.97;;;15.50;99.90;;;;;;5050857;28;20972;-78
2022/11/02 11:09:18;;;;;;;15.17;3.50;;;15.40;99.90;;;;;;5053176;28;20239;-79
2022/11/02 11:11:56;;;;;;;10.27;3.47;;;15.40;99.90;;;;;;5044579;28;20198;-80
2022/11/02 11:14:25;;;;;;;16.63;3.53;;;15.50;99.90;;;;;;5052831;28;20201;-80
2022/11/02 11:17:03;;;;;;;9.10;2.60;;;15.50;99.90;;;;;;5121977;27;20299;-79
2022/11/02 11:19:34;;;;;;;11.07;2.50;;;15.50;99.90;;;;;;5088433;28;20191;-80
2022/11/02 11:22:01;;;;;;;6.00;1.90;;;15.50;99.90;;;;;;5095449;28;20213;-79
2022/11/02 11:24:29;;;;;;;8.33;2.07;;;15.30;99.90;;;;;;5090069;28;20201;-79
2022/11/02 11:27:16;;;;;;;7.63;2.10;;;15.20;99.90;;;;;;5103906;28;20269;-79
2022/11/02 11:29:49;;;;;;;11.53;2.27;;;15.20;99.90;;;;;;5100772;28;20199;-78
2022/11/02 11:32:20;;;;;;;11.87;2.30;;;15.20;99.90;;;;;;5101114;28;20211;-78
2022/11/02 11:34:55;;;;;;;10.90;2.83;;;15.30;99.90;;;;;;5101212;28;20199;-79
2022/11/02 11:37:23;;;;;;;14.27;2.43;;;15.40;99.90;;;;;;5106250;28;20274;-78
2022/11/02 11:39:53;;;;;;;6.87;2.63;;;15.50;99.90;;;;;;5094350;28;20215;-79
2022/11/02 11:42:22;;;;;;;8.03;2.10;;;15.60;99.90;;;;;;5088332;28;20189;-80
2022/11/02 11:44:59;;;;;;;10.10;2.13;;;15.60;99.90;;;;;;5087869;28;20201;-78
2022/11/02 11:47:30;;;;;;;8.50;2.50;;;15.60;99.90;;;;;;5087991;28;20201;-80
2022/11/02 11:50:03;;;;;;;10.00;1.90;;;15.70;99.90;;;;;;5088542;28;20201;-79
2022/11/02 11:52:32;;;;;;;4.73;1.83;;;15.60;99.90;;;;;;5089077;28;20287;-78
2022/11/02 11:55:00;;;;;;;10.27;2.50;;;15.70;99.90;;;;;;5087693;28;20291;-81
2022/11/02 11:57:30;;;;;;;11.13;2.47;;;15.70;99.90;;;;;;5088912;28;20299;-79
2022/11/02 12:00:03;;;;;;;9.37;2.00;;;15.70;99.90;;;;;;5088407;28;20995;-79
2022/11/02 12:02:33;;;;;;;7.57;1.93;;;15.70;99.90;;;;;;5067890;28;20485;-78
2022/11/02 12:05:02;;;;;;;7.78;1.80;;;15.70;99.90;;;;;;5067681;28;20198;-79
2022/11/02 12:08:11;;;;;;;13.80;2.40;;;15.70;99.90;;;;;;5077440;28;20209;-79
2022/11/02 12:10:56;;;;;;;7.30;1.70;;;15.80;99.90;;;;;;5072670;28;20239;-78
2022/11/02 12:13:42;;;;;;;10.57;3.00;;;15.80;99.90;;;;;;5087659;28;20204;-78
2022/11/02 12:16:18;;;;;;;10.63;2.40;;;15.70;99.90;;;;;;5087272;28;20230;-79
2022/11/02 12:19:00;;;;;;;11.68;2.75;;;15.60;99.90;;;;;;5087755;28;20201;-78
2022/11/02 12:21:39;;;;;;;9.80;2.43;;;15.60;99.90;;;;;;5087861;28;20197;-78
2022/11/02 12:24:31;;;;;;;12.95;2.78;;;15.70;99.90;;;;;;5087448;28;20197;-80
2022/11/02 12:27:12;;;;;;;11.90;2.30;;;15.60;99.90;;;;;;5067498;28;20198;-79
2022/11/02 12:30:01;;;;;;;8.35;1.80;;;15.60;99.90;;;;;;5053349;28;20205;-79
2022/11/02 12:32:41;;;;;;;6.70;2.40;;;15.50;99.90;;;;;;5055347;28;20202;-78
2022/11/02 12:35:31;;;;;;;11.30;2.20;;;15.40;99.90;;;;;;5054690;28;20197;-79
2022/11/02 12:38:13;;;;;;;11.10;2.30;;;15.40;99.90;;;;;;5069460;28;20198;-79
2022/11/02 12:40:53;;;;;;;11.80;2.77;;;15.30;99.90;;;;;;5074504;28;20528;-80
2022/11/02 12:43:34;;;;;;;10.10;2.00;;;15.30;99.90;;;;;;5053726;28;20193;-77
2022/11/02 12:46:08;;;;;;;7.63;2.30;;;15.30;99.90;;;;;;5060069;28;20196;-78
2022/11/02 12:48:46;;;;;;;7.97;2.00;;;15.30;99.90;;;;;;5064138;28;20690;-74
2022/11/02 12:51:19;;;;;;;10.15;2.35;;;15.40;99.90;;;;;;5073157;28;20201;-81
2022/11/02 12:53:50;;;;;;;13.77;2.55;;;15.40;99.90;;;;;;5064135;28;20232;-76
2022/11/02 12:56:23;;;;;;;13.60;2.70;;;15.40;99.90;;;;;;5086228;28;20209;-77
2022/11/02 12:58:51;;;;;;;10.97;2.70;;;15.50;99.90;;;;;;5070196;28;20197;-77
2022/11/02 13:01:26;;;;;;;10.35;2.33;;;15.60;99.90;;;;;;5089086;28;20762;-79
2022/11/02 13:03:59;;;;;;;13.43;2.50;;;15.80;99.90;;;;;;5080759;28;20305;-78
2022/11/02 13:06:32;;;;;;;8.07;2.08;;;15.80;99.90;;;;;;5091063;28;20280;-78
2022/11/02 13:09:04;;;;;;;12.02;2.42;;;15.90;99.90;;;;;;5082067;28;20205;-78
2022/11/02 13:11:35;;;;;;;11.98;2.45;;;15.80;99.90;;;;;;5079184;28;20204;-78